createdAt,value
2022-10-28T15:44:24.098Z,19.73
2022-10-28T15:45:24.094Z,19.69
2022-10-28T15:46:24.051Z,19.76
2022-10-28T15:47:24.025Z,19.69
2022-10-28T15:48:24.014Z,19.66
2022-10-28T15:49:23.989Z,19.74
2022-10-28T15:50:23.970Z,19.74
2022-10-28T15:51:24.014Z,19.66
2022-10-28T15:52:23.972Z,19.73
2022-10-28T15:53:23.948Z,19.66
2022-10-28T15:54:23.951Z,19.66
2022-10-28T15:55:35.544Z,19.65
2022-10-28T15:56:24.904Z,19.69
2022-10-28T15:57:32.993Z,19.58
2022-10-28T15:58:23.883Z,19.54
2022-10-28T15:59:23.893Z,19.56
2022-10-28T16:00:23.937Z,19.55
2022-10-28T16:01:24.136Z,19.58
2022-10-28T16:02:24.985Z,19.56
2022-10-28T16:03:23.879Z,19.55
2022-10-28T16:04:23.838Z,19.48
2022-10-28T16:05:25.425Z,19.48
2022-10-28T16:06:23.830Z,19.39
2022-10-28T16:07:23.833Z,19.47
2022-10-28T16:08:23.771Z,19.48
2022-10-28T16:09:23.763Z,19.51
2022-10-28T16:10:23.747Z,19.51
2022-10-28T16:11:23.741Z,19.50
2022-10-28T16:12:23.763Z,19.51
2022-10-28T16:13:23.719Z,19.41
2022-10-28T16:14:23.706Z,19.46
2022-10-28T16:15:23.694Z,19.31
2022-10-28T16:16:23.709Z,19.41
2022-10-28T16:17:23.738Z,19.31
2022-10-28T16:18:23.675Z,19.37
2022-10-28T16:19:23.664Z,19.39
2022-10-28T16:20:23.734Z,19.39
2022-10-28T16:21:23.624Z,19.31
2022-10-28T16:22:24.055Z,19.36
2022-10-28T16:23:23.604Z,19.23
2022-10-28T16:24:23.611Z,19.37
2022-10-28T16:25:23.583Z,19.26
2022-10-28T16:26:23.570Z,19.33
2022-10-28T16:27:23.558Z,19.26
2022-10-28T16:28:23.568Z,19.26
2022-10-28T16:29:23.535Z,19.26
2022-10-28T16:30:23.564Z,19.22
2022-10-28T16:31:23.518Z,19.28
2022-10-28T16:32:23.523Z,19.31
2022-10-28T16:33:23.496Z,19.19
2022-10-28T16:34:23.506Z,19.28
2022-10-28T16:35:23.470Z,19.28
2022-10-28T16:36:23.477Z,19.25
2022-10-28T16:37:23.474Z,19.28
2022-10-28T16:38:23.433Z,19.22
2022-10-28T16:39:23.428Z,19.18
2022-10-28T16:41:24.404Z,19.21
2022-10-28T16:42:23.433Z,19.21
2022-10-28T16:43:23.386Z,19.23
2022-10-28T16:44:23.366Z,19.23
2022-10-28T16:45:23.364Z,19.31
2022-10-28T16:46:23.345Z,19.26
2022-10-28T16:47:23.454Z,19.25
2022-10-28T16:48:23.342Z,19.25
2022-10-28T16:49:23.322Z,19.19
2022-10-28T16:50:23.309Z,19.21
2022-10-28T16:51:23.289Z,19.16
2022-10-28T16:52:23.296Z,19.16
2022-10-28T16:53:23.273Z,19.18
2022-10-28T16:54:23.280Z,19.11
2022-10-28T16:55:23.245Z,19.14
2022-10-28T16:56:23.306Z,19.06
2022-10-28T16:58:26.106Z,18.99
2022-10-28T16:59:23.215Z,18.94
2022-10-28T17:00:24.953Z,19.04
2022-10-28T17:01:23.327Z,18.91
2022-10-28T17:02:23.325Z,18.94
2022-10-28T17:03:23.165Z,18.99
2022-10-28T17:04:23.161Z,18.94
2022-10-28T17:05:23.154Z,18.84
2022-10-28T17:06:23.167Z,18.82
2022-10-28T17:07:23.123Z,18.82
2022-10-28T17:08:49.062Z,18.81
2022-10-28T17:09:24.111Z,18.76
2022-10-28T17:10:23.077Z,18.75
2022-10-28T17:11:23.116Z,18.75
2022-10-28T17:12:23.066Z,18.67
2022-10-28T17:13:23.092Z,18.65
2022-10-28T17:14:23.092Z,18.65
2022-10-28T17:15:23.024Z,18.55
2022-10-28T17:16:23.018Z,18.50
2022-10-28T17:17:23.049Z,18.50
2022-10-28T17:18:23.039Z,18.52
2022-10-28T17:19:23.001Z,18.47
2022-10-28T17:20:22.978Z,18.41
2022-10-28T17:21:22.971Z,18.44
2022-10-28T17:22:22.946Z,18.42
2022-10-28T17:23:22.938Z,18.27
2022-10-28T17:24:22.954Z,18.30
2022-10-28T17:25:22.933Z,18.29
2022-10-28T17:26:22.900Z,18.29
2022-10-28T17:27:22.907Z,18.23
2022-10-28T17:28:22.903Z,18.20
2022-10-28T17:29:22.872Z,18.12
2022-10-28T17:30:22.923Z,18.17
2022-10-28T17:31:25.118Z,18.17
2022-10-28T17:32:22.843Z,18.11
2022-10-28T17:33:22.848Z,18.07
2022-10-28T17:34:22.899Z,18.14
2022-10-28T17:35:22.802Z,18.27
2022-10-28T17:36:22.820Z,18.18
2022-10-28T17:37:22.850Z,18.18
2022-10-28T17:38:22.767Z,18.07
2022-10-28T17:39:26.156Z,18.15
2022-10-28T17:40:22.749Z,18.00
2022-10-28T17:41:22.747Z,17.99
2022-10-28T17:43:33.136Z,17.86
2022-10-28T17:44:33.083Z,17.90
2022-10-28T17:45:33.131Z,17.86
2022-10-28T17:46:33.035Z,17.87
2022-10-28T17:47:32.999Z,17.84
2022-10-28T17:48:33.007Z,17.77
2022-10-28T17:49:32.998Z,17.79
2022-10-28T17:50:33.026Z,17.70
2022-10-28T17:51:33.062Z,17.71
2022-10-28T17:52:35.764Z,17.62
2022-10-28T17:53:33.912Z,17.62
2022-10-28T17:54:32.878Z,17.49
2022-10-28T17:55:32.941Z,17.62
2022-10-28T17:56:42.841Z,17.54
2022-10-28T17:57:33.094Z,17.51
2022-10-28T17:58:33.032Z,17.48
2022-10-28T17:59:32.956Z,17.41
2022-10-28T18:00:32.999Z,17.43
2022-10-28T18:01:33.015Z,17.40
2022-10-28T18:02:32.936Z,17.36
2022-10-28T18:03:37.245Z,17.40
2022-10-28T18:04:33.773Z,17.43
2022-10-28T18:05:32.738Z,17.38
2022-10-28T18:06:32.735Z,17.40
2022-10-28T18:07:32.741Z,17.37
2022-10-28T18:08:32.769Z,17.30
2022-10-28T18:09:32.699Z,17.30
2022-10-28T18:10:32.681Z,17.25
2022-10-28T18:11:32.727Z,17.34
2022-10-28T18:12:32.680Z,17.33
2022-10-28T18:13:32.696Z,17.28
2022-10-28T18:14:32.634Z,17.30
2022-10-28T18:15:32.626Z,17.26
2022-10-28T18:16:32.682Z,17.18
2022-10-28T18:17:32.662Z,17.11
2022-10-28T18:18:32.601Z,17.06
2022-10-28T18:19:32.609Z,17.11
2022-10-28T18:20:32.588Z,17.15
2022-10-28T18:21:32.580Z,17.07
2022-10-28T18:22:32.553Z,17.03
2022-10-28T18:23:32.628Z,16.97
2022-10-28T18:24:32.562Z,16.98
2022-10-28T18:25:32.519Z,16.85
2022-10-28T18:26:32.601Z,16.93
2022-10-28T18:27:32.518Z,16.79
2022-10-28T18:28:32.484Z,16.86
2022-10-28T18:29:32.477Z,16.76
2022-10-28T18:30:32.512Z,16.82
2022-10-28T18:31:32.475Z,16.85
2022-10-28T18:32:32.470Z,16.75
2022-10-28T18:33:32.470Z,16.75
2022-10-28T18:34:32.489Z,16.75
2022-10-28T18:35:32.486Z,16.60
2022-10-28T18:36:32.397Z,16.73
2022-10-28T18:37:32.402Z,16.60
2022-10-28T18:38:32.380Z,16.63
2022-10-28T18:39:32.368Z,16.58
2022-10-28T18:40:32.376Z,16.58
2022-10-28T18:41:32.424Z,16.56
2022-10-28T18:42:32.332Z,16.48
2022-10-28T18:43:32.329Z,16.49
2022-10-28T18:44:32.330Z,16.50
2022-10-28T18:45:32.288Z,16.50
2022-10-28T18:46:32.314Z,16.46
2022-10-28T18:47:32.271Z,16.45
2022-10-28T18:48:32.331Z,16.41
2022-10-28T18:49:32.266Z,16.38
2022-10-28T18:50:32.277Z,16.33
2022-10-28T18:51:32.245Z,16.42
2022-10-28T18:52:32.243Z,16.45
2022-10-28T18:53:32.244Z,16.49
2022-10-28T18:54:32.212Z,16.45
2022-10-28T18:55:32.219Z,16.49
2022-10-28T18:56:32.166Z,16.53
2022-10-28T18:57:32.159Z,16.45
2022-10-28T18:58:32.180Z,16.48
2022-10-28T18:59:32.187Z,16.48
2022-10-28T19:00:32.167Z,16.56
2022-10-28T19:01:32.282Z,16.50
2022-10-28T19:02:32.357Z,16.53
2022-10-28T19:03:32.094Z,16.60
2022-10-28T19:04:32.123Z,16.49
2022-10-28T19:05:32.073Z,16.48
2022-10-28T19:06:32.345Z,16.52
2022-10-28T19:07:32.061Z,16.45
2022-10-28T19:08:32.085Z,16.42
2022-10-28T19:09:32.057Z,16.50
2022-10-28T19:10:32.020Z,16.45
2022-10-28T19:11:32.011Z,16.45
2022-10-28T19:12:31.992Z,16.41
2022-10-28T19:13:32.000Z,16.48
2022-10-28T19:14:31.969Z,16.50
2022-10-28T19:15:31.961Z,16.48
2022-10-28T19:16:31.960Z,16.46
2022-10-28T19:17:31.935Z,16.48
2022-10-28T19:18:31.964Z,16.45
2022-10-28T19:19:35.526Z,16.49
2022-10-28T19:20:32.903Z,16.45
2022-10-28T19:21:31.934Z,16.46
2022-10-28T19:22:31.974Z,16.41
2022-10-28T19:23:31.866Z,16.38
2022-10-28T19:24:33.679Z,16.31
2022-10-28T19:25:31.844Z,16.41
2022-10-28T19:26:32.008Z,16.24
2022-10-28T19:27:31.826Z,16.31
2022-10-28T19:28:31.864Z,16.24
2022-10-28T19:29:31.836Z,16.24
2022-10-28T19:30:31.804Z,16.24
2022-10-28T19:31:31.797Z,16.15
2022-10-28T19:32:31.807Z,16.09
2022-10-28T19:33:31.788Z,16.07
2022-10-28T19:34:31.743Z,16.01
2022-10-28T19:35:31.735Z,15.97
2022-10-28T19:36:31.786Z,15.86
2022-10-28T19:37:31.715Z,15.86
2022-10-28T19:38:31.713Z,15.84
2022-10-28T19:39:31.724Z,15.71
2022-10-28T19:40:31.766Z,15.78
2022-10-28T19:41:31.678Z,15.65
2022-10-28T19:42:31.663Z,15.69
2022-10-28T19:43:31.689Z,15.64
2022-10-28T19:44:31.668Z,15.56
2022-10-28T19:45:31.639Z,15.51
2022-10-28T19:46:31.606Z,15.59
2022-10-28T19:47:31.639Z,15.36
2022-10-28T19:48:31.601Z,15.36
2022-10-28T19:49:37.153Z,15.47
2022-10-28T19:50:32.558Z,15.39
2022-10-28T19:51:31.569Z,15.36
2022-10-28T19:52:31.544Z,15.39
2022-10-28T19:53:31.594Z,15.27
2022-10-28T19:54:31.543Z,15.31
2022-10-28T19:55:31.571Z,15.35
2022-10-28T19:56:31.503Z,15.35
2022-10-28T19:57:31.500Z,15.34
2022-10-28T19:58:31.484Z,15.36
2022-10-28T19:59:31.485Z,15.46
2022-10-28T20:00:31.476Z,15.50
2022-10-28T20:01:31.668Z,15.47
2022-10-28T20:02:31.535Z,15.47
2022-10-28T20:03:34.416Z,15.57
2022-10-28T20:04:31.434Z,15.65
2022-10-28T20:05:31.409Z,15.62
2022-10-28T20:06:31.455Z,15.69
2022-10-28T20:07:31.375Z,15.68
2022-10-28T20:08:31.384Z,15.72
2022-10-28T20:09:31.367Z,15.76
2022-10-28T20:10:31.339Z,15.71
2022-10-28T20:11:31.404Z,15.76
2022-10-28T20:12:31.327Z,15.90
2022-10-28T20:13:31.318Z,15.92
2022-10-28T20:14:31.420Z,15.87
2022-10-28T20:15:31.283Z,15.92
2022-10-28T20:16:31.282Z,15.92
2022-10-28T20:17:31.311Z,15.90
2022-10-28T20:18:31.269Z,15.90
2022-10-28T20:19:31.225Z,15.93
2022-10-28T20:20:31.243Z,15.90
2022-10-28T20:21:31.208Z,15.92
2022-10-28T20:22:31.263Z,15.92
2022-10-28T20:23:31.240Z,15.92
2022-10-28T20:24:31.202Z,15.94
2022-10-28T20:25:31.178Z,16.01
2022-10-28T20:26:31.166Z,15.97
2022-10-28T20:27:31.181Z,16.00
2022-10-28T20:28:31.140Z,16.01
2022-10-28T20:29:31.165Z,16.05
2022-10-28T20:30:31.121Z,16.11
2022-10-28T20:31:31.104Z,16.08
2022-10-28T20:32:31.084Z,16.15
2022-10-28T20:33:31.099Z,16.20
2022-10-28T20:34:31.065Z,16.17
2022-10-28T20:35:31.042Z,16.31
2022-10-28T20:36:31.064Z,16.17
2022-10-28T20:37:31.044Z,16.23
2022-10-28T20:38:31.010Z,16.20
2022-10-28T20:39:31.012Z,16.25
2022-10-28T20:40:31.028Z,16.25
2022-10-28T20:41:30.974Z,16.25
2022-10-28T20:42:30.988Z,16.34
2022-10-28T20:43:30.952Z,16.27
2022-10-28T20:44:30.963Z,16.35
2022-10-28T20:45:30.961Z,16.41
2022-10-28T20:46:30.925Z,16.35
2022-10-28T20:47:30.964Z,16.38
2022-10-28T20:48:30.904Z,16.48
2022-10-28T20:49:30.884Z,16.50
2022-10-28T20:50:30.879Z,16.45
2022-10-28T20:51:30.878Z,16.45
2022-10-28T20:52:30.904Z,16.49
2022-10-28T20:53:30.996Z,16.45
2022-10-28T20:54:30.845Z,16.56
2022-10-28T20:55:30.841Z,16.60
2022-10-28T20:56:30.835Z,16.70
2022-10-28T20:57:30.792Z,16.71
2022-10-28T20:58:30.805Z,16.76
2022-10-28T20:59:30.828Z,16.79
2022-10-28T21:00:30.766Z,16.86
2022-10-28T21:01:30.888Z,16.89
2022-10-28T21:02:31.047Z,16.93
2022-10-28T21:03:30.769Z,16.91
2022-10-28T21:04:30.721Z,16.93
2022-10-28T21:05:30.778Z,16.93
2022-10-28T21:06:30.693Z,17.04
2022-10-28T21:07:30.705Z,17.03
2022-10-28T21:08:39.618Z,17.00
2022-10-28T21:09:30.803Z,17.16
2022-10-28T21:10:30.809Z,17.11
2022-10-28T21:11:31.295Z,17.14
2022-10-28T21:12:30.693Z,17.14
2022-10-28T21:13:30.614Z,17.18
2022-10-28T21:14:30.653Z,17.22
2022-10-28T21:15:30.593Z,17.12
2022-10-28T21:16:30.601Z,17.26
2022-10-28T21:17:30.612Z,17.30
2022-10-28T21:18:30.561Z,17.28
2022-10-28T21:19:30.586Z,17.34
2022-10-28T21:20:30.569Z,17.25
2022-10-28T21:21:30.526Z,17.31
2022-10-28T21:22:30.521Z,17.26
2022-10-28T21:23:37.930Z,17.21
2022-10-28T21:24:30.503Z,17.21
2022-10-28T21:25:30.578Z,17.15
2022-10-28T21:26:30.555Z,17.18
2022-10-28T21:27:30.491Z,17.12
2022-10-28T21:28:30.482Z,17.16
2022-10-28T21:29:30.544Z,17.19
2022-10-28T21:30:30.648Z,17.19
2022-10-28T21:31:30.450Z,17.18
2022-10-28T21:32:30.462Z,17.12
2022-10-28T21:33:30.473Z,17.11
2022-10-28T21:34:30.440Z,17.06
2022-10-28T21:35:30.396Z,17.06
2022-10-28T21:36:30.378Z,17.04
2022-10-28T21:37:30.371Z,17.06
2022-10-28T21:38:30.359Z,17.03
2022-10-28T21:39:30.376Z,17.01
2022-10-28T21:40:30.396Z,17.03
2022-10-28T21:41:30.376Z,17.08
2022-10-28T21:42:30.333Z,17.08
2022-10-28T21:43:30.359Z,17.00
2022-10-28T21:44:30.279Z,17.03
2022-10-28T21:45:30.295Z,17.06
2022-10-28T21:46:30.300Z,17.03
2022-10-28T21:47:30.237Z,17.03
2022-10-28T21:48:30.230Z,17.07
2022-10-28T21:49:30.216Z,17.06
2022-10-28T21:50:30.237Z,17.06
2022-10-28T21:51:30.217Z,17.03
2022-10-28T21:52:30.184Z,17.01
2022-10-28T21:53:30.201Z,17.08
2022-10-28T21:54:30.192Z,17.03
2022-10-28T21:55:42.083Z,17.03
2022-10-28T21:56:31.136Z,17.16
2022-10-28T21:57:37.689Z,17.15
2022-10-28T21:58:30.125Z,17.14
2022-10-28T21:59:30.088Z,17.16
2022-10-28T22:00:30.084Z,17.22
2022-10-28T22:01:30.258Z,17.14
2022-10-28T22:02:30.217Z,17.14
2022-10-28T22:03:30.083Z,17.07
2022-10-28T22:04:30.034Z,17.08
2022-10-28T22:05:30.029Z,16.97
2022-10-28T22:06:30.018Z,16.98
2022-10-28T22:07:30.036Z,16.93
2022-10-28T22:08:29.985Z,16.85
2022-10-28T22:09:33.532Z,16.89
2022-10-28T22:10:30.982Z,16.88
2022-10-28T22:11:29.976Z,16.88
2022-10-28T22:12:29.947Z,16.75
2022-10-28T22:13:29.948Z,16.76
2022-10-28T22:14:29.929Z,16.76
2022-10-28T22:15:29.917Z,16.78
2022-10-28T22:16:29.923Z,16.64
2022-10-28T22:17:29.886Z,16.61
2022-10-28T22:18:29.877Z,16.58
2022-10-28T22:19:29.885Z,16.53
2022-10-28T22:20:29.864Z,16.53
2022-10-28T22:21:29.881Z,16.49
2022-10-28T22:22:29.849Z,16.48
2022-10-28T22:23:29.855Z,16.48
2022-10-28T22:24:29.814Z,16.52
2022-10-28T22:25:29.798Z,16.43
2022-10-28T22:26:29.806Z,16.43
2022-10-28T22:27:29.780Z,16.45
2022-10-28T22:28:29.771Z,16.45
2022-10-28T22:29:29.754Z,16.41
2022-10-28T22:30:29.770Z,16.43
2022-10-28T22:31:29.758Z,16.39
2022-10-28T22:32:29.723Z,16.39
2022-10-28T22:33:29.825Z,16.35
2022-10-28T22:34:29.700Z,16.41
2022-10-28T22:35:29.690Z,16.41
2022-10-28T22:36:29.704Z,16.42
2022-10-28T22:37:29.671Z,16.34
2022-10-28T22:38:29.651Z,16.41
2022-10-28T22:39:29.656Z,16.38
2022-10-28T22:40:29.638Z,16.34
2022-10-28T22:41:29.637Z,16.30
2022-10-28T22:42:29.612Z,16.42
2022-10-28T22:43:29.593Z,16.27
2022-10-28T22:44:29.597Z,16.28
2022-10-28T22:45:29.575Z,16.28
2022-10-28T22:46:29.585Z,16.35
2022-10-28T22:47:29.546Z,16.24
2022-10-28T22:48:29.543Z,16.24
2022-10-28T22:49:29.527Z,16.12
2022-10-28T22:50:29.543Z,16.20
2022-10-28T22:51:29.521Z,16.11
2022-10-28T22:52:29.514Z,16.14
2022-10-28T22:53:29.482Z,16.08
2022-10-28T22:54:29.479Z,16.08
2022-10-28T22:55:29.492Z,16.04
2022-10-28T22:56:29.473Z,16.02
2022-10-28T22:57:29.438Z,16.04
2022-10-28T22:58:29.446Z,15.92
2022-10-28T22:59:29.422Z,15.84
2022-10-28T23:00:29.407Z,15.86
2022-10-28T23:01:29.537Z,15.76
2022-10-28T23:02:29.504Z,15.80
2022-10-28T23:03:29.398Z,15.72
2022-10-28T23:04:29.359Z,15.62
2022-10-28T23:05:29.356Z,15.59
2022-10-28T23:06:29.359Z,15.65
2022-10-28T23:07:29.344Z,15.60
2022-10-28T23:08:29.319Z,15.59
2022-10-28T23:09:29.349Z,15.54
2022-10-28T23:10:29.295Z,15.62
2022-10-28T23:11:29.297Z,15.59
2022-10-28T23:12:29.271Z,15.59
2022-10-28T23:13:29.343Z,15.59
2022-10-28T23:14:29.292Z,15.57
2022-10-28T23:15:29.237Z,15.62
2022-10-28T23:16:29.223Z,15.62
2022-10-28T23:17:29.214Z,15.56
2022-10-28T23:18:29.194Z,15.57
2022-10-28T23:19:29.209Z,15.59
2022-10-28T23:20:29.189Z,15.60
2022-10-28T23:21:29.168Z,15.59
2022-10-28T23:22:29.151Z,15.56
2022-10-28T23:23:29.144Z,15.56
2022-10-28T23:24:29.156Z,15.50
2022-10-28T23:25:29.160Z,15.53
2022-10-28T23:26:29.111Z,15.53
2022-10-28T23:27:29.109Z,15.64
2022-10-28T23:28:29.089Z,15.46
2022-10-28T23:29:29.086Z,15.54
2022-10-28T23:30:29.059Z,15.51
2022-10-28T23:31:29.057Z,15.57
2022-10-28T23:32:29.040Z,15.41
2022-10-28T23:33:29.023Z,15.46
2022-10-28T23:34:29.043Z,15.47
2022-10-28T23:35:29.003Z,15.44
2022-10-28T23:36:28.991Z,15.44
2022-10-28T23:37:28.977Z,15.32
2022-10-28T23:38:28.964Z,15.38
2022-10-28T23:39:28.992Z,15.36
2022-10-28T23:40:28.946Z,15.35
2022-10-28T23:41:28.951Z,15.25
2022-10-28T23:42:28.919Z,15.32
2022-10-28T23:43:28.931Z,15.28
2022-10-28T23:44:28.924Z,15.28
2022-10-28T23:45:28.889Z,15.32
2022-10-28T23:46:32.284Z,15.25
2022-10-28T23:47:29.864Z,15.31
2022-10-28T23:48:28.855Z,15.25
2022-10-28T23:49:28.866Z,15.27
2022-10-28T23:50:28.846Z,15.32
2022-10-28T23:51:28.821Z,15.31
2022-10-28T23:52:28.810Z,15.32
2022-10-28T23:54:28.791Z,15.39
2022-10-28T23:55:28.810Z,15.35
2022-10-28T23:56:28.761Z,15.35
2022-10-28T23:57:28.756Z,15.35
2022-10-28T23:58:28.752Z,15.38
2022-10-28T23:59:28.744Z,15.43
